Time,TemperatureF,DewpointF,PressureIn,WindDirection,WindDirectionDegrees,WindSpeedMPH,WindSpeedGustMPH,Humidity,HourlyPrecipIn,Conditions,Clouds,dailyrainin,SoftwareType,DateUTC
2013-10-20 00:00:00,38.6,33.6,30.46,SW,225,0.0,0.0,82,0.00,,---,0.00,VWS V14.01,2013-10-20 05:00:00,
2013-10-20 00:10:00,38.3,33.3,30.46,SW,225,0.0,0.0,82,0.00,,---,0.00,VWS V14.01,2013-10-20 05:10:00,
2013-10-20 00:20:00,38.0,33.3,30.45,SW,225,0.0,0.0,83,0.00,,---,0.00,VWS V14.01,2013-10-20 05:20:00,
2013-10-20 00:30:00,37.9,33.2,30.45,SW,225,0.0,0.0,83,0.00,,---,0.00,VWS V14.01,2013-10-20 05:30:00,
2013-10-20 00:40:00,37.9,33.5,30.45,SW,225,0.0,0.0,84,0.00,,---,0.00,VWS V14.01,2013-10-20 05:40:00,
2013-10-20 00:50:00,38.0,33.6,30.44,SW,225,0.0,0.0,84,0.00,,---,0.00,VWS V14.01,2013-10-20 05:50:00,
2013-10-20 01:00:00,38.0,33.6,30.44,SW,225,0.0,0.0,84,0.00,,---,0.00,VWS V14.01,2013-10-20 06:00:00,
2013-10-20 01:10:00,37.9,33.8,30.44,SW,225,0.0,0.0,85,0.00,,---,0.00,VWS V14.01,2013-10-20 06:10:00,
2013-10-20 01:20:00,38.0,33.9,30.44,SW,225,0.0,0.0,85,0.00,,---,0.00,VWS V14.01,2013-10-20 06:20:00,
2013-10-20 01:30:00,38.2,34.4,30.43,SW,225,0.0,0.0,86,0.00,,---,0.00,VWS V14.01,2013-10-20 06:30:00,
2013-10-20 01:40:00,38.2,34.4,30.43,SW,225,0.0,0.0,86,0.00,,---,0.00,VWS V14.01,2013-10-20 06:40:00,
2013-10-20 01:50:00,38.2,34.4,30.43,SW,225,0.0,0.0,86,0.00,,---,0.00,VWS V14.01,2013-10-20 06:50:00,
2013-10-20 02:00:00,37.9,34.1,30.43,SW,225,0.0,0.0,86,0.00,,---,0.00,VWS V14.01,2013-10-20 07:00:00,
2013-10-20 02:10:00,37.8,34.0,30.43,SW,225,0.0,0.0,86,0.00,,---,0.00,VWS V14.01,2013-10-20 07:10:00,
2013-10-20 02:20:00,37.5,33.7,30.43,SW,225,0.0,0.0,86,0.00,,---,0.00,VWS V14.01,2013-10-20 07:20:00,
2013-10-20 02:30:00,37.2,33.4,30.43,SW,225,0.0,0.0,86,0.00,,---,0.00,VWS V14.01,2013-10-20 07:30:00,
2013-10-20 02:40:00,36.9,33.1,30.43,SW,225,0.0,0.0,86,0.00,,---,0.00,VWS V14.01,2013-10-20 07:40:00,
2013-10-20 02:50:00,36.8,33.0,30.42,SW,225,0.0,0.0,86,0.00,,---,0.00,VWS V14.01,2013-10-20 07:50:00,
2013-10-20 03:00:00,36.5,32.7,30.42,SW,225,0.0,0.0,86,0.00,,---,0.00,VWS V14.01,2013-10-20 08:00:00,
2013-10-20 03:10:00,36.2,32.4,30.42,SW,225,0.0,0.0,86,0.00,,---,0.00,VWS V14.01,2013-10-20 08:10:00,
2013-10-20 03:20:00,35.9,32.4,30.41,SW,225,0.0,0.0,87,0.00,,---,0.00,VWS V14.01,2013-10-20 08:20:00,
2013-10-20 03:30:00,35.6,32.1,30.41,SW,225,0.0,0.0,87,0.00,,---,0.00,VWS V14.01,2013-10-20 08:30:00,
2013-10-20 03:40:00,35.5,32.0,30.41,SW,225,0.0,0.0,87,0.00,,---,0.00,VWS V14.01,2013-10-20 08:40:00,
2013-10-20 03:50:00,35.2,31.7,30.41,SW,225,0.0,0.0,87,0.00,,---,0.00,VWS V14.01,2013-10-20 08:50:00,
2013-10-20 04:00:00,35.0,31.5,30.40,SW,225,0.0,0.0,87,0.00,,---,0.00,VWS V14.01,2013-10-20 09:00:00,
2013-10-20 04:10:00,35.0,31.5,30.40,SW,225,0.0,0.0,87,0.00,,---,0.00,VWS V14.01,2013-10-20 09:10:00,
2013-10-20 04:20:00,35.0,31.5,30.40,SW,225,0.0,0.0,87,0.00,,---,0.00,VWS V14.01,2013-10-20 09:20:00,
2013-10-20 04:30:00,35.0,31.5,30.40,SW,225,0.0,0.0,87,0.00,,---,0.00,VWS V14.01,2013-10-20 09:30:00,
2013-10-20 04:40:00,34.9,31.7,30.40,SW,225,0.0,0.0,88,0.00,,---,0.00,VWS V14.01,2013-10-20 09:40:00,
2013-10-20 04:50:00,34.7,31.5,30.40,SW,225,0.0,0.0,88,0.00,,---,0.00,VWS V14.01,2013-10-20 09:50:00,
2013-10-20 05:00:00,34.6,31.4,30.40,SW,225,0.0,0.0,88,0.00,,---,0.00,VWS V14.01,2013-10-20 10:00:00,
2013-10-20 05:10:00,34.4,31.2,30.40,SW,225,0.0,0.0,88,0.00,,---,0.00,VWS V14.01,2013-10-20 10:10:00,
2013-10-20 05:20:00,34.3,31.1,30.40,SW,225,0.0,0.0,88,0.00,,---,0.00,VWS V14.01,2013-10-20 10:20:00,
2013-10-20 05:30:00,34.1,30.9,30.40,SW,225,0.0,0.0,88,0.00,,---,0.00,VWS V14.01,2013-10-20 10:30:00,
2013-10-20 05:40:00,34.1,30.9,30.40,SW,225,0.0,0.0,88,0.00,,---,0.00,VWS V14.01,2013-10-20 10:40:00,
2013-10-20 05:50:00,34.0,30.8,30.40,SW,225,0.0,0.0,88,0.00,,---,0.00,VWS V14.01,2013-10-20 10:50:00,
2013-10-20 06:00:00,33.8,30.6,30.41,SW,225,0.0,0.0,88,0.00,,---,0.00,VWS V14.01,2013-10-20 11:00:00,
2013-10-20 06:10:00,33.8,30.9,30.41,SW,225,0.0,0.0,89,0.00,,---,0.00,VWS V14.01,2013-10-20 11:10:00,
2013-10-20 06:20:00,33.8,30.9,30.41,SW,225,0.0,0.0,89,0.00,,---,0.00,VWS V14.01,2013-10-20 11:20:00,
2013-10-20 06:30:00,33.8,30.9,30.42,SW,225,0.0,0.0,89,0.00,,---,0.00,VWS V14.01,2013-10-20 11:30:00,
2013-10-20 06:40:00,33.8,30.9,30.42,SW,225,0.0,0.0,89,0.00,,---,0.00,VWS V14.01,2013-10-20 11:40:00,
2013-10-20 06:50:00,33.8,30.9,30.41,SW,225,0.0,0.0,89,0.00,,---,0.00,VWS V14.01,2013-10-20 11:50:00,
2013-10-20 07:00:00,33.8,30.9,30.41,SW,225,0.0,0.0,89,0.00,,---,0.00,VWS V14.01,2013-10-20 12:00:00,
2013-10-20 07:10:00,33.7,30.8,30.41,SW,225,0.0,0.0,89,0.00,,---,0.00,VWS V14.01,2013-10-20 12:10:00,
2013-10-20 07:20:00,33.7,30.8,30.42,SW,225,0.0,0.0,89,0.00,,---,0.00,VWS V14.01,2013-10-20 12:20:00,
2013-10-20 07:30:00,33.5,30.6,30.43,SW,225,0.0,0.0,89,0.00,,---,0.00,VWS V14.01,2013-10-20 12:30:00,
2013-10-20 07:40:00,33.5,30.9,30.43,SW,225,0.0,0.0,90,0.00,,---,0.00,VWS V14.01,2013-10-20 12:40:00,
2013-10-20 07:50:00,33.7,31.1,30.43,SW,225,0.0,0.0,90,0.00,,---,0.00,VWS V14.01,2013-10-20 12:50:00,
2013-10-20 08:00:00,34.0,31.4,30.43,SW,225,0.0,0.0,90,0.00,,---,0.00,VWS V14.01,2013-10-20 13:00:00,
2013-10-20 08:10:00,34.6,32.0,30.43,SW,225,0.0,0.0,90,0.00,,---,0.00,VWS V14.01,2013-10-20 13:10:00,
2013-10-20 08:20:00,35.0,32.6,30.44,SW,225,0.0,0.0,91,0.00,,---,0.00,VWS V14.01,2013-10-20 13:20:00,
2013-10-20 08:30:00,36.5,34.4,30.44,WSW,248,0.0,2.0,92,0.00,,---,0.00,VWS V14.01,2013-10-20 13:30:00,
2013-10-20 08:40:00,38.2,36.1,30.44,WSW,248,0.0,0.0,92,0.00,,---,0.00,VWS V14.01,2013-10-20 13:40:00,
2013-10-20 08:50:00,39.9,38.0,30.44,WSW,248,0.0,0.0,93,0.00,,---,0.00,VWS V14.01,2013-10-20 13:50:00,
2013-10-20 09:00:00,41.9,40.0,30.44,SSW,202,1.0,4.0,93,0.00,,---,0.00,VWS V14.01,2013-10-20 14:00:00,
2013-10-20 09:10:00,44.6,42.7,30.44,SW,225,4.0,11.0,93,0.00,,---,0.00,VWS V14.01,2013-10-20 14:10:00,
2013-10-20 09:20:00,46.2,44.0,30.44,SW,225,6.0,12.0,92,0.00,,---,0.00,VWS V14.01,2013-10-20 14:20:00,
2013-10-20 09:30:00,48.3,44.9,30.43,SW,225,6.0,14.0,88,0.00,,---,0.00,VWS V14.01,2013-10-20 14:30:00,
2013-10-20 09:40:00,50.5,44.6,30.43,SW,225,7.0,14.0,80,0.00,,---,0.00,VWS V14.01,2013-10-20 14:40:00,
2013-10-20 09:50:00,52.6,42.3,30.43,SW,225,8.0,15.0,68,0.00,,---,0.00,VWS V14.01,2013-10-20 14:50:00,
2013-10-20 10:00:00,54.2,41.1,30.42,SW,225,8.0,16.0,61,0.00,,---,0.00,VWS V14.01,2013-10-20 15:00:00,
2013-10-20 10:10:00,55.6,40.6,30.42,SW,225,8.0,15.0,57,0.00,,---,0.00,VWS V14.01,2013-10-20 15:10:00,
2013-10-20 10:20:00,56.6,40.6,30.42,SW,225,8.0,15.0,55,0.00,,---,0.00,VWS V14.01,2013-10-20 15:20:00,
2013-10-20 10:30:00,57.5,40.0,30.42,SW,225,10.0,18.0,52,0.00,,---,0.00,VWS V14.01,2013-10-20 15:30:00,
2013-10-20 10:40:00,58.3,40.3,30.42,SW,225,10.0,18.0,51,0.00,,---,0.00,VWS V14.01,2013-10-20 15:40:00,
2013-10-20 10:50:00,59.2,40.1,30.42,SW,225,10.0,16.0,49,0.00,,---,0.00,VWS V14.01,2013-10-20 15:50:00,
2013-10-20 11:00:00,59.9,40.2,30.41,WSW,248,8.0,16.0,48,0.00,,---,0.00,VWS V14.01,2013-10-20 16:00:00,
2013-10-20 11:10:00,60.7,40.4,30.41,SW,225,9.0,16.0,47,0.00,,---,0.00,VWS V14.01,2013-10-20 16:10:00,
2013-10-20 11:20:00,61.3,39.8,30.41,SW,225,9.0,19.0,45,0.00,,---,0.00,VWS V14.01,2013-10-20 16:20:00,
2013-10-20 11:30:00,61.8,39.7,30.41,SW,225,10.0,17.0,44,0.00,,---,0.00,VWS V14.01,2013-10-20 16:30:00,
2013-10-20 11:40:00,62.4,39.6,30.41,SW,225,10.0,18.0,43,0.00,,---,0.00,VWS V14.01,2013-10-20 16:40:00,
2013-10-20 11:50:00,62.6,40.4,30.40,SW,225,10.0,20.0,44,0.00,,---,0.00,VWS V14.01,2013-10-20 16:50:00,
2013-10-20 12:00:00,62.7,39.3,30.40,SW,225,10.0,17.0,42,0.00,,---,0.00,VWS V14.01,2013-10-20 17:00:00,
2013-10-20 12:10:00,63.4,39.3,30.40,SW,225,8.0,15.0,41,0.00,,---,0.00,VWS V14.01,2013-10-20 17:10:00,
2013-10-20 12:20:00,63.7,39.0,30.40,SW,225,10.0,18.0,40,0.00,,---,0.00,VWS V14.01,2013-10-20 17:20:00,
2013-10-20 12:30:00,64.0,39.2,30.38,WSW,248,7.0,16.0,40,0.00,,---,0.00,VWS V14.01,2013-10-20 17:30:00,
2013-10-20 12:40:00,65.0,38.1,30.38,WSW,248,7.0,14.0,37,0.00,,---,0.00,VWS V14.01,2013-10-20 17:40:00,
2013-10-20 12:50:00,66.0,39.7,30.37,SW,225,7.0,15.0,38,0.00,,---,0.00,VWS V14.01,2013-10-20 17:50:00,
2013-10-20 13:00:00,66.4,38.7,30.36,SW,225,8.0,15.0,36,0.00,,---,0.00,VWS V14.01,2013-10-20 18:00:00,
2013-10-20 13:10:00,66.6,37.4,30.36,SW,225,8.0,14.0,34,0.00,,---,0.00,VWS V14.01,2013-10-20 18:10:00,
2013-10-20 13:20:00,66.9,39.1,30.36,SW,225,7.0,14.0,36,0.00,,---,0.00,VWS V14.01,2013-10-20 18:20:00,
2013-10-20 13:30:00,67.8,39.9,30.34,SSW,202,7.0,15.0,36,0.00,,---,0.00,VWS V14.01,2013-10-20 18:30:00,
2013-10-20 13:40:00,66.9,36.9,30.34,SW,225,9.0,15.0,33,0.00,,---,0.00,VWS V14.01,2013-10-20 18:40:00,
2013-10-20 13:50:00,67.4,38.8,30.34,SW,225,8.0,15.0,35,0.00,,---,0.00,VWS V14.01,2013-10-20 18:50:00,
2013-10-20 14:00:00,66.8,37.6,30.33,SW,225,10.0,18.0,34,0.00,,---,0.00,VWS V14.01,2013-10-20 19:00:00,
2013-10-20 14:10:00,67.6,38.3,30.33,South,180,8.0,16.0,34,0.00,,---,0.00,VWS V14.01,2013-10-20 19:10:00,
2013-10-20 14:20:00,67.4,40.2,30.32,SW,225,7.0,13.0,37,0.00,,---,0.00,VWS V14.01,2013-10-20 19:20:00,
2013-10-20 14:30:00,67.8,40.6,30.32,SSW,202,7.0,16.0,37,0.00,,---,0.00,VWS V14.01,2013-10-20 19:30:00,
2013-10-20 14:40:00,68.1,39.4,30.32,South,180,7.0,16.0,35,0.00,,---,0.00,VWS V14.01,2013-10-20 19:40:00,
2013-10-20 14:50:00,67.8,38.4,30.31,SW,225,8.0,14.0,34,0.00,,---,0.00,VWS V14.01,2013-10-20 19:50:00,
2013-10-20 15:00:00,67.6,38.3,30.31,SSW,202,8.0,15.0,34,0.00,,---,0.00,VWS V14.01,2013-10-20 20:00:00,
2013-10-20 15:10:00,67.9,39.3,30.31,South,180,7.0,18.0,35,0.00,,---,0.00,VWS V14.01,2013-10-20 20:10:00,
2013-10-20 15:20:00,67.9,36.2,30.31,SSW,202,7.0,15.0,31,0.00,,---,0.00,VWS V14.01,2013-10-20 20:20:00,
2013-10-20 15:30:00,67.4,38.8,30.30,SSW,202,9.0,19.0,35,0.00,,---,0.00,VWS V14.01,2013-10-20 20:30:00,
2013-10-20 15:40:00,67.6,38.3,30.30,SW,225,8.0,16.0,34,0.00,,---,0.00,VWS V14.01,2013-10-20 20:40:00,
2013-10-20 15:50:00,67.8,39.9,30.30,SW,225,7.0,14.0,36,0.00,,---,0.00,VWS V14.01,2013-10-20 20:50:00,
2013-10-20 16:00:00,68.1,38.7,30.30,SW,225,6.0,12.0,34,0.00,,---,0.00,VWS V14.01,2013-10-20 21:00:00,
2013-10-20 16:10:00,67.4,39.5,30.30,SSW,202,8.0,16.0,36,0.00,,---,0.00,VWS V14.01,2013-10-20 21:10:00,
2013-10-20 16:20:00,66.9,39.8,30.29,SSW,202,8.0,18.0,37,0.00,,---,0.00,VWS V14.01,2013-10-20 21:20:00,
2013-10-20 16:30:00,66.3,40.6,30.29,SSW,202,9.0,17.0,39,0.00,,---,0.00,VWS V14.01,2013-10-20 21:30:00,
2013-10-20 16:40:00,66.4,39.4,30.29,South,180,8.0,17.0,37,0.00,,---,0.00,VWS V14.01,2013-10-20 21:40:00,
2013-10-20 16:50:00,66.4,40.7,30.29,SSW,202,6.0,13.0,39,0.00,,---,0.00,VWS V14.01,2013-10-20 21:50:00,
2013-10-20 17:00:00,66.1,41.1,30.29,SSW,202,7.0,13.0,40,0.00,,---,0.00,VWS V14.01,2013-10-20 22:00:00,
2013-10-20 17:10:00,65.8,41.5,30.29,South,180,7.0,14.0,41,0.00,,---,0.00,VWS V14.01,2013-10-20 22:10:00,
2013-10-20 17:20:00,65.2,41.5,30.29,SSW,202,7.0,15.0,42,0.00,,---,0.00,VWS V14.01,2013-10-20 22:20:00,
2013-10-20 17:30:00,64.8,41.8,30.29,SSW,202,6.0,13.0,43,0.00,,---,0.00,VWS V14.01,2013-10-20 22:30:00,
2013-10-20 17:40:00,64.7,42.9,30.29,South,180,5.0,11.0,45,0.00,,---,0.00,VWS V14.01,2013-10-20 22:40:00,
2013-10-20 17:50:00,63.9,41.6,30.29,South,180,5.0,11.0,44,0.00,,---,0.00,VWS V14.01,2013-10-20 22:50:00,
2013-10-20 18:00:00,63.2,41.0,30.29,South,180,6.0,13.0,44,0.00,,---,0.00,VWS V14.01,2013-10-20 23:00:00,
2013-10-20 18:10:00,62.6,41.0,30.29,SSW,202,5.0,11.0,45,0.00,,---,0.00,VWS V14.01,2013-10-20 23:10:00,
2013-10-20 18:20:00,62.4,40.8,30.30,SSW,202,3.0,9.0,45,0.00,,---,0.00,VWS V14.01,2013-10-20 23:20:00,
2013-10-20 18:30:00,62.0,40.4,30.30,SSW,202,3.0,7.0,45,0.00,,---,0.00,VWS V14.01,2013-10-20 23:30:00,
2013-10-20 18:40:00,61.3,40.4,30.30,SSW,202,2.0,5.0,46,0.00,,---,0.00,VWS V14.01,2013-10-20 23:40:00,
2013-10-20 18:50:00,60.7,40.4,30.31,SSW,202,1.0,4.0,47,0.00,,---,0.00,VWS V14.01,2013-10-20 23:50:00,
2013-10-20 19:00:00,60.2,39.9,30.31,SSW,202,1.0,4.0,47,0.00,,---,0.00,VWS V14.01,2013-10-21 00:00:00,
2013-10-20 19:10:00,59.6,39.9,30.31,SSW,202,0.0,3.0,48,0.00,,---,0.00,VWS V14.01,2013-10-21 00:10:00,
2013-10-20 19:20:00,59.0,39.9,30.32,SSW,202,0.0,0.0,49,0.00,,---,0.00,VWS V14.01,2013-10-21 00:20:00,
2013-10-20 19:30:00,58.4,40.4,30.32,SSW,202,0.0,2.0,51,0.00,,---,0.00,VWS V14.01,2013-10-21 00:30:00,
2013-10-20 19:40:00,57.6,40.6,30.32,SSW,202,0.0,0.0,53,0.00,,---,0.00,VWS V14.01,2013-10-21 00:40:00,
2013-10-20 19:50:00,57.0,41.5,30.33,SSW,202,0.0,0.0,56,0.00,,---,0.00,VWS V14.01,2013-10-21 00:50:00,
2013-10-20 20:00:00,56.6,42.5,30.33,SSW,202,1.0,5.0,59,0.00,,---,0.00,VWS V14.01,2013-10-21 01:00:00,
2013-10-20 20:10:00,56.3,43.0,30.33,SSW,202,2.0,5.0,61,0.00,,---,0.00,VWS V14.01,2013-10-21 01:10:00,
2013-10-20 20:20:00,56.2,42.9,30.32,SSW,202,1.0,3.0,61,0.00,,---,0.00,VWS V14.01,2013-10-21 01:20:00,
2013-10-20 20:30:00,56.0,42.8,30.32,SSW,202,0.0,2.0,61,0.00,,---,0.00,VWS V14.01,2013-10-21 01:30:00,
2013-10-20 20:40:00,55.9,42.7,30.32,SSW,202,0.0,1.0,61,0.00,,---,0.00,VWS V14.01,2013-10-21 01:40:00,
2013-10-20 20:50:00,55.7,42.5,30.32,SSW,202,0.0,0.0,61,0.00,,---,0.00,VWS V14.01,2013-10-21 01:50:00,
2013-10-20 21:00:00,55.7,42.5,30.32,SSW,202,0.0,1.0,61,0.00,,---,0.00,VWS V14.01,2013-10-21 02:00:00,
2013-10-20 21:10:00,55.7,42.5,30.32,SSW,202,0.0,3.0,61,0.00,,---,0.00,VWS V14.01,2013-10-21 02:10:00,
2013-10-20 21:20:00,55.6,42.4,30.31,SSW,202,0.0,2.0,61,0.00,,---,0.00,VWS V14.01,2013-10-21 02:20:00,
2013-10-20 21:30:00,55.6,43.2,30.32,SSW,202,0.0,1.0,63,0.00,,---,0.00,VWS V14.01,2013-10-21 02:30:00,
2013-10-20 21:40:00,55.6,43.2,30.32,SSW,202,1.0,6.0,63,0.00,,---,0.00,VWS V14.01,2013-10-21 02:40:00,
2013-10-20 21:50:00,55.9,43.5,30.32,SSW,202,4.0,10.0,63,0.00,,---,0.00,VWS V14.01,2013-10-21 02:50:00,
2013-10-20 22:00:00,56.0,43.6,30.33,SSW,202,1.0,5.0,63,0.00,,---,0.00,VWS V14.01,2013-10-21 03:00:00,
2013-10-20 22:10:00,55.9,43.5,30.33,SSW,202,0.0,1.0,63,0.00,,---,0.00,VWS V14.01,2013-10-21 03:10:00,
2013-10-20 22:20:00,55.7,43.3,30.33,SSW,202,0.0,1.0,63,0.00,,---,0.00,VWS V14.01,2013-10-21 03:20:00,
2013-10-20 22:30:00,55.6,43.2,30.34,SSW,202,0.0,0.0,63,0.00,,---,0.00,VWS V14.01,2013-10-21 03:30:00,
2013-10-20 22:40:00,55.4,43.8,30.34,SSW,202,0.0,0.0,65,0.00,,---,0.00,VWS V14.01,2013-10-21 03:40:00,
2013-10-20 22:50:00,55.3,44.5,30.34,SSW,202,0.0,0.0,67,0.00,,---,0.00,VWS V14.01,2013-10-21 03:50:00,
2013-10-20 23:00:00,55.0,44.7,30.34,SSW,202,0.0,0.0,68,0.00,,---,0.00,VWS V14.01,2013-10-21 04:00:00,
2013-10-20 23:10:00,54.7,45.1,30.34,SSW,202,0.0,1.0,70,0.00,,---,0.00,VWS V14.01,2013-10-21 04:10:00,
2013-10-20 23:20:00,54.1,44.5,30.34,SSW,202,0.0,1.0,70,0.00,,---,0.00,VWS V14.01,2013-10-21 04:20:00,
2013-10-20 23:30:00,53.5,44.0,30.34,SSW,202,0.0,0.0,70,0.00,,---,0.00,VWS V14.01,2013-10-21 04:30:00,
2013-10-20 23:40:00,52.8,43.3,30.34,SSW,202,0.0,0.0,70,0.00,,---,0.00,VWS V14.01,2013-10-21 04:40:00,
2013-10-20 23:50:00,52.0,42.5,30.34,SSW,202,0.0,0.0,70,0.00,,---,0.00,VWS V14.01,2013-10-21 04:50:00,